Time;durP1;ratioP1;P1;durP2;ratioP2;P2;SDS_P1;SDS_P2;PMS_P1;PMS_P2;Temp;Humidity;BMP_temperature;BMP_pressure;BME280_temperature;BME280_humidity;BME280_pressure;Samples;Min_cycle;Max_cycle;Signal;HPM_P1;HPM_P2
2022/10/18 00:00:34;;;;;;;;;;;;;;;25.86;33.10;102426.16;5057839;28;1893;-39
2022/10/18 00:03:00;;;;;;;;;;;;;;;25.79;32.98;102425.81;5057725;28;887;-40
2022/10/18 00:05:25;;;;;;;;;;;;;;;25.80;33.12;102425.69;5057824;28;1096;-39
2022/10/18 00:07:50;;;;;;;;;;;;;;;25.76;33.09;102417.97;5057782;28;1219;-38
2022/10/18 00:10:15;;;;;;;;;;;;;;;25.77;33.02;102419.69;5050310;28;1108;-39
2022/10/18 00:12:41;;;;;;;;;;;;;;;25.76;33.01;102416.13;5075169;28;1155;-39
2022/10/18 00:15:06;;;;;;;;;;;;;;;25.76;33.12;102420.66;5057348;28;950;-39
2022/10/18 00:17:35;;;;;;;;;;;;;;;25.78;33.20;102422.25;5071083;28;2344;-39
2022/10/18 00:20:00;;;;;;;;;;;;;;;25.79;32.98;102423.13;5057196;28;1914;-39
2022/10/18 00:22:25;;;;;;;;;;;;;;;25.81;33.17;102426.50;5057687;28;1100;-39
2022/10/18 00:24:51;;;;;;;;;;;;;;;25.85;32.96;102417.19;5071541;28;1195;-39
2022/10/18 00:27:16;;;;;;;;;;;;;;;25.87;33.14;102417.91;5056875;28;905;-39
2022/10/18 00:29:41;;;;;;;;;;;;;;;25.91;32.83;102407.69;5070851;28;1163;-39
2022/10/18 00:32:06;;;;;;;;;;;;;;;25.86;32.84;102402.72;5057492;28;1112;-39
2022/10/18 00:34:32;;;;;;;;;;;;;;;25.85;32.98;102400.16;5071298;28;1206;-39
2022/10/18 00:36:57;;;;;;;;;;;;;;;25.79;33.07;102399.69;5074562;28;1159;-39
2022/10/18 00:39:22;;;;;;;;;;;;;;;25.75;32.93;102390.19;5074687;28;888;-39
2022/10/18 00:41:48;;;;;;;;;;;;;;;25.79;32.99;102394.31;5062832;28;1967;-39
2022/10/18 00:44:16;;;;;;;;;;;;;;;25.73;33.07;102378.69;5057347;28;1100;-39
2022/10/18 00:46:42;;;;;;;;;;;;;;;25.75;33.33;102379.41;5069487;28;1179;-39
2022/10/18 00:49:27;;;;;;;;;;;;;;;25.83;33.09;102376.03;5063075;28;2376;-39
2022/10/18 00:51:53;;;;;;;;;;;;;;;25.22;33.16;102276.13;5058789;28;1135;-38
2022/10/18 00:54:18;;;;;;;;;;;;;;;25.84;32.96;102374.19;5058368;28;1178;-39
2022/10/18 00:56:43;;;;;;;;;;;;;;;25.84;32.98;102376.88;5039104;28;1181;-38
2022/10/18 00:59:09;;;;;;;;;;;;;;;25.83;33.14;102367.94;5038770;28;1199;-39
2022/10/18 01:01:34;;;;;;;;;;;;;;;25.86;32.97;102374.91;5063807;28;1898;-39
2022/10/18 01:03:59;;;;;;;;;;;;;;;25.73;33.25;102364.34;5056557;28;1147;-40
2022/10/18 01:06:27;;;;;;;;;;;;;;;25.88;33.28;102368.41;5045650;28;1192;-39
2022/10/18 01:08:54;;;;;;;;;;;;;;;25.82;33.23;102368.06;5046351;28;1116;-39
2022/10/18 01:11:35;;;;;;;;;;;;;;;25.79;33.12;102367.34;5056278;28;1171;-39
2022/10/18 01:14:19;;;;;;;;;;;;;;;25.73;33.18;102367.91;5060385;28;1128;-39
2022/10/18 01:16:50;;;;;;;;;;;;;;;25.76;33.24;102369.44;5056332;28;1120;-40
2022/10/18 01:19:33;;;;;;;;;;;;;;;25.83;33.17;102365.25;5070383;28;2501;-39
2022/10/18 01:22:01;;;;;;;;;;;;;;;25.78;33.32;102362.97;5047011;28;1914;-39
2022/10/18 01:24:39;;;;;;;;;;;;;;;25.83;32.98;102372.47;5043544;28;1222;-39
2022/10/18 01:27:04;;;;;;;;;;;;;;;25.86;33.13;102367.66;5068085;28;1137;-39
2022/10/18 01:29:48;;;;;;;;;;;;;;;25.88;32.92;102370.22;5061236;28;1135;-39
2022/10/18 01:32:26;;;;;;;;;;;;;;;25.78;33.16;102367.50;5056264;28;1136;-39
2022/10/18 01:34:52;;;;;;;;;;;;;;;25.79;33.11;102367.34;5059988;28;1144;-39
2022/10/18 01:37:18;;;;;;;;;;;;;;;25.88;33.04;102363.00;5043299;28;1144;-39
2022/10/18 01:39:45;;;;;;;;;;;;;;;25.84;33.07;102356.16;5076170;28;888;-39
2022/10/18 01:42:11;;;;;;;;;;;;;;;25.92;33.00;102364.41;5057991;28;1960;-39
2022/10/18 01:44:36;;;;;;;;;;;;;;;25.86;33.10;102361.44;5065384;28;1148;-39
2022/10/18 01:47:01;;;;;;;;;;;;;;;25.82;33.03;102360.84;5050123;28;1093;-39
2022/10/18 01:49:27;;;;;;;;;;;;;;;25.86;33.22;102372.22;5071936;28;2603;-39
2022/10/18 01:51:52;;;;;;;;;;;;;;;25.82;33.24;102370.78;5059002;28;933;-40
2022/10/18 01:54:21;;;;;;;;;;;;;;;25.84;33.14;102366.94;5055814;28;1108;-39
2022/10/18 01:56:57;;;;;;;;;;;;;;;25.75;33.35;102370.44;5038176;28;1141;-40
2022/10/18 01:59:31;;;;;;;;;;;;;;;25.85;33.49;102365.97;5056059;28;1147;-39
2022/10/18 02:02:00;;;;;;;;;;;;;;;25.82;33.12;102363.53;5055838;28;1898;-39
2022/10/18 02:04:30;;;;;;;;;;;;;;;25.73;33.48;102359.81;5055522;28;1489;-39
2022/10/18 02:07:16;;;;;;;;;;;;;;;25.80;33.34;102363.69;5055813;28;1140;-40
2022/10/18 02:10:10;;;;;;;;;;;;;;;25.76;33.54;102356.84;5055483;28;1256;-40
2022/10/18 02:12:36;;;;;;;;;;;;;;;25.79;33.17;102358.44;5031632;28;1444;-39
2022/10/18 02:15:01;;;;;;;;;;;;;;;25.79;33.53;102351.19;5037900;28;909;-39
2022/10/18 02:17:27;;;;;;;;;;;;;;;25.75;33.50;102349.75;5037802;28;1140;-39
2022/10/18 02:19:53;;;;;;;;;;;;;;;25.90;33.49;102354.78;5057580;28;2704;-39
2022/10/18 02:22:18;;;;;;;;;;;;;;;25.82;33.30;102349.22;5057958;28;1910;-39
2022/10/18 02:24:44;;;;;;;;;;;;;;;25.74;33.57;102352.59;5061389;28;1190;-39
2022/10/18 02:27:10;;;;;;;;;;;;;;;25.84;33.26;102345.38;5065417;28;1179;-39
2022/10/18 02:29:35;;;;;;;;;;;;;;;25.79;33.35;102358.44;5055995;28;1143;-39
2022/10/18 02:32:05;;;;;;;;;;;;;;;25.80;33.60;102355.59;5045742;28;1202;-39
2022/10/18 02:34:38;;;;;;;;;;;;;;;25.80;33.51;102349.34;5053922;28;1215;-39
2022/10/18 02:37:03;;;;;;;;;;;;;;;25.71;33.47;102356.38;5072766;28;1096;-39
2022/10/18 02:39:28;;;;;;;;;;;;;;;25.71;33.53;102350.16;5048899;28;977;-39
2022/10/18 02:41:54;;;;;;;;;;;;;;;25.72;33.36;102352.72;5061394;28;1902;-39
2022/10/18 02:44:19;;;;;;;;;;;;;;;25.72;33.62;102349.16;5068754;28;1123;-39
2022/10/18 02:46:44;;;;;;;;;;;;;;;25.73;33.74;102340.06;5055596;28;1092;-38
2022/10/18 02:49:10;;;;;;;;;;;;;;;25.75;33.41;102346.19;5060374;28;1844;-39
2022/10/18 02:51:35;;;;;;;;;;;;;;;25.64;33.64;102339.06;5066156;28;932;-38
2022/10/18 02:54:00;;;;;;;;;;;;;;;25.70;33.49;102337.66;5061089;28;1100;-38
2022/10/18 02:56:25;;;;;;;;;;;;;;;25.71;33.39;102342.06;5059188;28;1099;-38
2022/10/18 02:58:51;;;;;;;;;;;;;;;25.68;33.77;102335.97;5072842;28;1120;-38
2022/10/18 03:01:16;;;;;;;;;;;;;;;25.73;33.61;102340.06;5059031;28;1909;-38
2022/10/18 03:03:41;;;;;;;;;;;;;;;25.73;33.70;102340.06;5070782;28;1160;-38
2022/10/18 03:06:07;;;;;;;;;;;;;;;25.73;33.70;102342.78;5075201;28;1135;-40
2022/10/18 03:08:32;;;;;;;;;;;;;;;25.72;33.51;102347.34;5058659;28;1128;-42
2022/10/18 03:10:57;;;;;;;;;;;;;;;25.69;33.53;102344.91;5060864;28;1492;-39
2022/10/18 03:13:22;;;;;;;;;;;;;;;25.73;33.63;102346.34;5070491;28;1173;-40
2022/10/18 03:15:48;;;;;;;;;;;;;;;25.71;33.71;102345.59;5072368;28;1206;-39
2022/10/18 03:18:13;;;;;;;;;;;;;;;25.65;33.95;102340.75;5058510;28;2455;-38
2022/10/18 03:20:38;;;;;;;;;;;;;;;25.74;33.54;102349.88;5058639;28;1914;-39
2022/10/18 03:23:05;;;;;;;;;;;;;;;25.72;33.54;102344.63;5058341;28;1128;-39
2022/10/18 03:25:31;;;;;;;;;;;;;;;25.71;33.62;102336.69;5058681;28;1139;-39
2022/10/18 03:27:56;;;;;;;;;;;;;;;25.73;33.48;102337.38;5059942;28;1160;-39
2022/10/18 03:30:21;;;;;;;;;;;;;;;25.70;33.65;102337.66;5070673;28;1151;-39
2022/10/18 03:32:47;;;;;;;;;;;;;;;25.67;33.33;102334.22;5058848;28;1178;-39
2022/10/18 03:35:12;;;;;;;;;;;;;;;25.67;33.51;102341.50;5058652;28;1163;-38
2022/10/18 03:37:37;;;;;;;;;;;;;;;25.67;33.71;102334.22;5058200;28;1183;-38
2022/10/18 03:40:03;;;;;;;;;;;;;;;25.66;33.64;102331.69;5058166;28;1081;-38
2022/10/18 03:42:28;;;;;;;;;;;;;;;25.66;33.58;102329.84;5063838;28;1894;-38
2022/10/18 03:44:53;;;;;;;;;;;;;;;25.53;33.63;102331.88;5078618;28;1167;-38
2022/10/18 03:47:19;;;;;;;;;;;;;;;24.98;30.13;102324.84;5078002;28;1088;-40
2022/10/18 03:49:44;;;;;;;;;;;;;;;24.38;30.65;102327.00;5059683;28;2543;-42
2022/10/18 03:52:09;;;;;;;;;;;;;;;23.41;31.50;102325.63;5061054;28;1191;-40
2022/10/18 03:54:34;;;;;;;;;;;;;;;22.94;33.38;102326.47;5058309;28;1197;-41
2022/10/18 03:57:00;;;;;;;;;;;;;;;22.42;32.88;102326.66;5057749;28;1580;-39
2022/10/18 03:59:25;;;;;;;;;;;;;;;23.59;33.72;102326.03;5058288;28;1148;-40
2022/10/18 04:01:50;;;;;;;;;;;;;;;24.50;32.25;102337.72;5040289;28;1894;-40
2022/10/18 04:04:16;;;;;;;;;;;;;;;24.68;32.26;102322.75;5068536;28;1124;-42
2022/10/18 04:06:41;;;;;;;;;;;;;;;24.89;31.97;102329.16;5068871;28;1139;-41
2022/10/18 04:09:06;;;;;;;;;;;;;;;24.91;32.06;102330.75;5057454;28;1088;-41
2022/10/18 04:11:31;;;;;;;;;;;;;;;25.02;31.93;102334.38;5057537;28;1120;-41
2022/10/18 04:13:57;;;;;;;;;;;;;;;25.04;31.80;102329.75;5057868;28;1100;-41
2022/10/18 04:16:22;;;;;;;;;;;;;;;25.10;31.53;102336.41;5057488;28;1218;-41
2022/10/18 04:18:47;;;;;;;;;;;;;;;25.14;31.49;102335.19;5068260;28;2556;-42
2022/10/18 04:21:13;;;;;;;;;;;;;;;25.19;31.60;102338.34;5074919;28;1957;-40
2022/10/18 04:23:38;;;;;;;;;;;;;;;25.16;31.66;102333.19;5057562;28;1136;-42
2022/10/18 04:26:03;;;;;;;;;;;;;;;25.19;31.63;102325.72;5057418;28;1132;-42
2022/10/18 04:28:29;;;;;;;;;;;;;;;25.24;31.37;102330.69;5063515;28;900;-42
2022/10/18 04:30:54;;;;;;;;;;;;;;;25.24;31.34;102328.00;5065196;28;1091;-41
2022/10/18 04:33:19;;;;;;;;;;;;;;;25.27;31.36;102329.59;5071319;28;1179;-41
2022/10/18 04:35:45;;;;;;;;;;;;;;;25.23;31.44;102326.31;5057339;28;1116;-41
2022/10/18 04:38:10;;;;;;;;;;;;;;;25.26;31.31;102322.50;5057167;28;1135;-42
2022/10/18 04:40:35;;;;;;;;;;;;;;;25.28;31.29;102325.91;5057031;28;1966;-41
2022/10/18 04:43:01;;;;;;;;;;;;;;;25.30;31.28;102318.56;5057316;28;1192;-41
2022/10/18 04:45:26;;;;;;;;;;;;;;;25.28;31.55;102324.09;5057153;28;1156;-41
2022/10/18 04:47:51;;;;;;;;;;;;;;;25.30;31.33;102324.81;5059608;28;2680;-41
2022/10/18 04:50:17;;;;;;;;;;;;;;;25.32;31.19;102327.38;5077025;28;1210;-41
2022/10/18 04:52:42;;;;;;;;;;;;;;;25.33;31.36;102323.69;5069130;28;1116;-41
2022/10/18 04:55:07;;;;;;;;;;;;;;;25.31;31.43;102321.13;5064987;28;1151;-41
2022/10/18 04:57:32;;;;;;;;;;;;;;;25.33;31.51;102328.19;5056707;28;1247;-41
2022/10/18 04:59:58;;;;;;;;;;;;;;;25.35;31.32;102319.03;5066636;28;1108;-41
2022/10/18 05:02:23;;;;;;;;;;;;;;;25.38;31.35;102328.66;5061213;28;1906;-41
2022/10/18 05:04:49;;;;;;;;;;;;;;;25.43;31.44;102326.44;5068911;28;933;-39
2022/10/18 05:07:14;;;;;;;;;;;;;;;25.40;31.51;102316.78;5063149;28;1131;-40
2022/10/18 05:09:39;;;;;;;;;;;;;;;25.38;31.74;102325.97;5057172;28;1287;-40
2022/10/18 05:12:05;;;;;;;;;;;;;;;25.42;31.87;102325.56;5056272;28;1279;-39
2022/10/18 05:14:30;;;;;;;;;;;;;;;25.47;31.60;102327.03;5056598;28;1202;-39
2022/10/18 05:16:55;;;;;;;;;;;;;;;25.47;31.65;102324.31;5056299;28;908;-40
2022/10/18 05:19:21;;;;;;;;;;;;;;;25.48;31.73;102323.31;5070296;28;2689;-39
2022/10/18 05:21:46;;;;;;;;;;;;;;;25.58;31.74;102329.63;5056332;28;1976;-41
2022/10/18 05:24:11;;;;;;;;;;;;;;;25.53;31.67;102324.66;5056439;28;1116;-41
2022/10/18 05:26:36;;;;;;;;;;;;;;;25.53;31.65;102323.78;5056512;28;1187;-41
2022/10/18 05:29:02;;;;;;;;;;;;;;;25.49;31.92;102328.59;5055882;28;908;-41
2022/10/18 05:31:27;;;;;;;;;;;;;;;25.52;31.96;102325.66;5073688;28;1183;-40
2022/10/18 05:33:53;;;;;;;;;;;;;;;25.60;31.91;102329.50;5067661;28;1103;-41
2022/10/18 05:36:18;;;;;;;;;;;;;;;25.65;31.77;102330.84;5067171;28;1100;-41
2022/10/18 05:38:44;;;;;;;;;;;;;;;25.74;31.49;102320.25;5059317;28;993;-41
2022/10/18 05:41:09;;;;;;;;;;;;;;;25.73;31.55;102318.50;5055964;28;1906;-41
2022/10/18 05:43:35;;;;;;;;;;;;;;;25.70;31.42;102324.19;5055923;28;1182;-41
2022/10/18 05:46:00;;;;;;;;;;;;;;;25.65;31.39;102320.06;5062618;28;1088;-40
2022/10/18 05:48:25;;;;;;;;;;;;;;;25.66;31.25;102324.44;5063156;28;2291;-40
2022/10/18 05:50:51;;;;;;;;;;;;;;;25.72;31.43;102323.06;5056419;28;1156;-41
2022/10/18 05:53:16;;;;;;;;;;;;;;;25.69;31.68;102323.34;5068975;28;905;-41
2022/10/18 05:55:41;;;;;;;;;;;;;;;25.75;31.73;102324.63;5059437;28;1159;-40
2022/10/18 05:58:07;;;;;;;;;;;;;;;25.76;31.48;102329.03;5056095;28;1140;-41
2022/10/18 06:00:32;;;;;;;;;;;;;;;25.74;31.02;102328.31;5056369;28;1951;-41
2022/10/18 06:02:57;;;;;;;;;;;;;;;25.76;30.94;102331.72;5069811;28;1609;-41
2022/10/18 06:05:22;;;;;;;;;;;;;;;25.75;31.15;102330.03;5068998;28;850;-41
2022/10/18 06:07:48;;;;;;;;;;;;;;;25.77;31.39;102328.91;5058017;28;1166;-42
2022/10/18 06:10:13;;;;;;;;;;;;;;;25.77;31.17;102338.84;5055841;28;1123;-41
2022/10/18 06:12:38;;;;;;;;;;;;;;;25.78;31.15;102335.13;5057563;28;1210;-42
2022/10/18 06:15:04;;;;;;;;;;;;;;;25.81;31.22;102332.16;5075884;28;1124;-40
2022/10/18 06:17:29;;;;;;;;;;;;;;;25.98;30.93;102335.22;5075424;28;1171;-39
2022/10/18 06:19:54;;;;;;;;;;;;;;;25.97;30.81;102333.50;5075212;28;2661;-42
2022/10/18 06:22:20;;;;;;;;;;;;;;;26.02;31.11;102344.75;5075621;28;1960;-42
2022/10/18 06:24:45;;;;;;;;;;;;;;;26.00;30.96;102335.94;5057654;28;1215;-42
2022/10/18 06:27:10;;;;;;;;;;;;;;;26.16;30.76;102338.09;5065854;28;1084;-42
2022/10/18 06:29:36;;;;;;;;;;;;;;;26.20;30.54;102344.06;5065361;28;1175;-42
2022/10/18 06:32:01;;;;;;;;;;;;;;;26.23;30.49;102335.72;5060042;28;1198;-40
2022/10/18 06:34:26;;;;;;;;;;;;;;;26.20;31.13;102344.06;5072813;28;1160;-42
2022/10/18 06:36:51;;;;;;;;;;;;;;;26.22;30.52;102336.72;5065263;28;1182;-40
2022/10/18 06:39:17;;;;;;;;;;;;;;;26.19;30.69;102345.94;5079580;28;1108;-40
2022/10/18 06:41:42;;;;;;;;;;;;;;;26.29;30.19;102333.31;5078940;28;1894;-41
2022/10/18 06:44:12;;;;;;;;;;;;;;;26.28;30.50;102328.91;5074156;28;1206;-42
2022/10/18 06:46:38;;;;;;;;;;;;;;;26.32;30.13;102329.50;5059198;28;1129;-42
2022/10/18 06:49:04;;;;;;;;;;;;;;;26.33;30.40;102320.44;5072213;28;1849;-42
2022/10/18 06:51:29;;;;;;;;;;;;;;;26.28;30.43;102319.97;5069189;28;1139;-41
2022/10/18 06:53:54;;;;;;;;;;;;;;;26.28;30.64;102320.81;5060388;28;1100;-39
2022/10/18 06:56:19;;;;;;;;;;;;;;;26.36;30.51;102319.31;5071872;28;1072;-40
2022/10/18 06:58:45;;;;;;;;;;;;;;;26.33;30.41;102315.03;5058953;28;1187;-40
2022/10/18 07:01:11;;;;;;;;;;;;;;;26.41;30.45;102317.88;5064584;28;1894;-39
2022/10/18 07:03:36;;;;;;;;;;;;;;;26.58;30.43;102318.19;5079280;28;1127;-39
2022/10/18 07:06:02;;;;;;;;;;;;;;;26.59;30.26;102313.66;5060832;28;1120;-40
2022/10/18 07:08:28;;;;;;;;;;;;;;;26.55;30.29;102315.78;5041019;28;1152;-39
2022/10/18 07:10:53;;;;;;;;;;;;;;;26.72;30.23;102316.94;5058879;28;1167;-38
2022/10/18 07:13:19;;;;;;;;;;;;;;;26.65;29.88;102319.34;5066032;28;1084;-38
2022/10/18 07:15:44;;;;;;;;;;;;;;;26.82;29.78;102322.31;5078652;28;1115;-39
2022/10/18 07:18:09;;;;;;;;;;;;;;;26.93;29.44;102321.31;5068979;28;1864;-39
2022/10/18 07:20:35;;;;;;;;;;;;;;;26.90;29.58;102324.31;5058714;28;1894;-39
2022/10/18 07:23:00;;;;;;;;;;;;;;;26.89;29.60;102315.34;5058646;28;1132;-39
2022/10/18 07:25:25;;;;;;;;;;;;;;;26.84;29.92;102311.38;5059294;28;1171;-38
2022/10/18 07:27:50;;;;;;;;;;;;;;;26.88;29.50;102307.38;5060022;28;1164;-38
2022/10/18 07:30:16;;;;;;;;;;;;;;;26.88;29.37;102310.09;5077907;28;910;-39
2022/10/18 07:32:41;;;;;;;;;;;;;;;26.99;29.66;102312.63;5065486;28;1131;-40
2022/10/18 07:35:07;;;;;;;;;;;;;;;27.13;29.31;102313.22;5073484;28;1164;-38
2022/10/18 07:37:32;;;;;;;;;;;;;;;27.13;29.20;102305.09;5078446;28;1267;-39
2022/10/18 07:39:57;;;;;;;;;;;;;;;27.07;29.42;102306.56;5064253;28;1182;-38
2022/10/18 07:42:23;;;;;;;;;;;;;;;27.18;29.53;102302.81;5073701;28;1964;-37
2022/10/18 07:44:49;;;;;;;;;;;;;;;27.06;29.53;102298.59;5067591;28;1198;-39
2022/10/18 07:47:14;;;;;;;;;;;;;;;27.17;29.51;102300.28;5058818;28;1088;-38
2022/10/18 07:49:39;;;;;;;;;;;;;;;27.14;29.88;102291.44;5058262;28;2586;-38
2022/10/18 07:52:05;;;;;;;;;;;;;;;27.16;29.63;102288.59;5058447;28;1140;-37
2022/10/18 07:54:30;;;;;;;;;;;;;;;27.28;29.40;102293.88;5073695;28;890;-39
2022/10/18 07:56:55;;;;;;;;;;;;;;;27.42;29.08;102295.22;5077809;28;1115;-39
2022/10/18 07:59:21;;;;;;;;;;;;;;;27.36;28.88;102296.69;5059467;28;1190;-39
2022/10/18 08:01:46;;;;;;;;;;;;;;;27.43;29.11;102292.38;5068538;28;1909;-38
2022/10/18 08:04:11;;;;;;;;;;;;;;;27.44;29.28;102287.81;5075499;28;1080;-38
2022/10/18 08:06:37;;;;;;;;;;;;;;;27.42;29.16;102287.97;5073486;28;921;-39
2022/10/18 08:09:02;;;;;;;;;;;;;;;26.91;30.03;102285.50;5063176;28;1175;-39
2022/10/18 08:11:28;;;;;;;;;;;;;;;26.79;30.30;102287.53;5057912;28;1214;-39
2022/10/18 08:13:53;;;;;;;;;;;;;;;26.82;30.42;102287.22;5069759;28;1332;-40
2022/10/18 08:16:22;;;;;;;;;;;;;;;26.72;30.62;102281.84;5063865;28;1150;-40
2022/10/18 08:18:47;;;;;;;;;;;;;;;26.72;30.44;102275.56;5066606;28;2502;-40
2022/10/18 08:21:13;;;;;;;;;;;;;;;26.78;30.42;102278.56;5057415;28;1961;-39
2022/10/18 08:23:38;;;;;;;;;;;;;;;26.79;30.12;102279.41;5066063;28;1262;-39
2022/10/18 08:26:04;;;;;;;;;;;;;;;26.81;30.46;102272.00;5063020;28;1206;-39
2022/10/18 08:28:30;;;;;;;;;;;;;;;26.76;30.53;102269.75;5063860;28;1190;-39
2022/10/18 08:30:55;;;;;;;;;;;;;;;26.72;30.39;102265.63;5077121;28;902;-39
2022/10/18 08:33:20;;;;;;;;;;;;;;;26.73;30.26;102256.53;5041708;28;1203;-39
2022/10/18 08:35:55;;;;;;;;;;;;;;;26.74;30.25;102260.94;5077308;28;1119;-39
2022/10/18 08:38:20;;;;;;;;;;;;;;;26.71;30.71;102257.69;5063671;28;1139;-39
2022/10/18 08:40:46;;;;;;;;;;;;;;;26.69;30.71;102255.13;5057328;28;1902;-39
2022/10/18 08:43:21;;;;;;;;;;;;;;;26.71;30.40;102253.13;5075824;28;945;-39
2022/10/18 08:45:46;;;;;;;;;;;;;;;26.76;30.72;102252.69;5040504;28;1195;-40
2022/10/18 08:48:16;;;;;;;;;;;;;;;26.72;30.76;102249.44;5038961;28;2289;-40
2022/10/18 08:50:42;;;;;;;;;;;;;;;26.70;30.47;102250.56;5056597;28;1136;-40
2022/10/18 08:53:13;;;;;;;;;;;;;;;26.76;30.25;102250.84;5056802;28;1053;-40
2022/10/18 08:55:39;;;;;;;;;;;;;;;26.78;29.84;102248.84;5056979;28;1381;-40
2022/10/18 08:58:12;;;;;;;;;;;;;;;26.71;30.20;102241.50;5056919;28;1120;-40
2022/10/18 09:00:37;;;;;;;;;;;;;;;26.68;30.56;102229.13;5038982;28;1898;-39
2022/10/18 09:03:03;;;;;;;;;;;;;;;26.68;30.77;102248.00;5038711;28;1283;-38
2022/10/18 09:05:49;;;;;;;;;;;;;;;26.65;30.33;102232.09;5066318;28;1203;-38
2022/10/18 09:08:18;;;;;;;;;;;;;;;26.69;30.23;102233.53;5055885;28;1444;-38
2022/10/18 09:10:48;;;;;;;;;;;;;;;26.65;30.60;102232.09;5056768;28;1155;-40
2022/10/18 09:13:22;;;;;;;;;;;;;;;26.68;30.71;102223.72;5056617;28;1209;-39
2022/10/18 09:15:55;;;;;;;;;;;;;;;26.78;30.30;102232.66;5070766;28;1246;-40
2022/10/18 09:18:26;;;;;;;;;;;;;;;26.76;30.73;102231.09;5038459;28;2450;-40
2022/10/18 09:21:06;;;;;;;;;;;;;;;26.76;30.37;102231.09;5056207;28;1976;-40
2022/10/18 09:23:31;;;;;;;;;;;;;;;26.76;30.39;102226.53;5056568;28;1192;-41
2022/10/18 09:26:02;;;;;;;;;;;;;;;26.69;30.22;102214.66;5072913;28;1198;-40
2022/10/18 09:28:30;;;;;;;;;;;;;;;26.70;30.09;102207.38;5039021;28;1045;-40
2022/10/18 09:31:14;;;;;;;;;;;;;;;26.67;30.30;102203.13;5069188;28;912;-41
2022/10/18 09:33:45;;;;;;;;;;;;;;;26.68;30.12;102210.22;5060389;28;1112;-40
2022/10/18 09:36:14;;;;;;;;;;;;;;;26.67;30.21;102197.72;5065633;28;1414;-40
2022/10/18 09:38:42;;;;;;;;;;;;;;;26.64;30.31;102203.44;5055804;28;1144;-40
2022/10/18 09:41:08;;;;;;;;;;;;;;;26.67;30.41;102191.47;5046899;28;1972;-40
2022/10/18 09:43:45;;;;;;;;;;;;;;;26.66;30.63;102196.00;5054488;28;1015;-40
2022/10/18 09:46:11;;;;;;;;;;;;;;;26.60;30.65;102189.38;5056209;28;1167;-40
2022/10/18 09:48:44;;;;;;;;;;;;;;;26.62;30.68;102195.47;5047098;28;2261;-41
2022/10/18 09:51:16;;;;;;;;;;;;;;;26.73;30.50;102189.06;5051198;28;1135;-39
2022/10/18 09:53:41;;;;;;;;;;;;;;;26.68;30.76;102183.22;5038371;28;1148;-40
2022/10/18 09:56:11;;;;;;;;;;;;;;;26.63;30.84;102182.81;5061985;28;1107;-40
2022/10/18 09:58:40;;;;;;;;;;;;;;;26.64;30.79;102174.56;5058308;28;1144;-40
2022/10/18 10:01:06;;;;;;;;;;;;;;;26.68;30.87;102174.28;5056872;28;1976;-39
2022/10/18 10:03:31;;;;;;;;;;;;;;;26.72;30.55;102170.31;5039964;28;1117;-39
2022/10/18 10:06:24;;;;;;;;;;;;;;;26.72;30.28;102167.59;5062706;28;1160;-39
2022/10/18 10:08:53;;;;;;;;;;;;;;;26.84;30.33;102165.59;5076060;28;1197;-38
2022/10/18 10:11:31;;;;;;;;;;;;;;;27.12;29.92;102154.84;5065860;28;1103;-40
2022/10/18 10:13:59;;;;;;;;;;;;;;;27.15;29.84;102157.25;5066810;28;1227;-40
2022/10/18 10:16:24;;;;;;;;;;;;;;;26.90;30.47;102154.19;5041828;28;1323;-39
2022/10/18 10:18:53;;;;;;;;;;;;;;;26.77;30.27;102147.28;5043417;28;2868;-39
2022/10/18 10:21:18;;;;;;;;;;;;;;;26.72;30.52;102141.47;5041598;28;1914;-39
2022/10/18 10:23:44;;;;;;;;;;;;;;;26.72;30.68;102136.06;5042402;28;1211;-39
2022/10/18 10:26:29;;;;;;;;;;;;;;;26.83;30.73;102135.03;5041954;28;1238;-38
2022/10/18 10:28:55;;;;;;;;;;;;;;;26.82;30.82;102121.69;5060085;28;1235;-38
2022/10/18 10:31:23;;;;;;;;;;;;;;;26.79;30.90;102128.25;5059308;28;1104;-39
2022/10/18 10:33:56;;;;;;;;;;;;;;;26.83;31.27;102123.38;5059406;28;1201;-39
2022/10/18 10:36:22;;;;;;;;;;;;;;;26.79;31.07;102117.44;5071404;28;1136;-39
2022/10/18 10:39:05;;;;;;;;;;;;;;;26.78;31.26;102119.28;5076028;28;1127;-39
2022/10/18 10:41:31;;;;;;;;;;;;;;;26.76;31.21;102099.66;5059483;28;1973;-40
2022/10/18 10:43:56;;;;;;;;;;;;;;;26.78;31.27;102108.47;5058928;28;1450;-41
2022/10/18 10:46:22;;;;;;;;;;;;;;;26.76;31.33;102104.22;5059485;28;1111;-38
2022/10/18 10:48:57;;;;;;;;;;;;;;;26.83;31.62;102101.78;5058992;28;1861;-40
2022/10/18 10:51:32;;;;;;;;;;;;;;;26.81;31.83;102095.69;5068265;28;1241;-40
2022/10/18 10:54:12;;;;;;;;;;;;;;;26.73;31.86;102091.88;5059044;28;1100;-40
2022/10/18 10:56:54;;;;;;;;;;;;;;;26.79;31.66;102095.84;5051665;28;1108;-39
2022/10/18 10:59:19;;;;;;;;;;;;;;;26.78;31.72;102086.03;5041090;28;1164;-40
2022/10/18 11:01:48;;;;;;;;;;;;;;;26.77;31.64;102089.72;5041210;28;1910;-42
2022/10/18 11:04:27;;;;;;;;;;;;;;;26.73;32.03;102077.50;5073396;28;1092;-40
2022/10/18 11:07:12;;;;;;;;;;;;;;;26.79;32.07;102074.25;5065345;28;1128;-40
2022/10/18 11:09:41;;;;;;;;;;;;;;;26.76;31.75;102067.28;5024015;28;1272;-40
2022/10/18 11:12:15;;;;;;;;;;;;;;;26.94;32.16;102068.34;5067209;28;1238;-41
2022/10/18 11:14:41;;;;;;;;;;;;;;;26.87;32.66;102065.38;5058669;28;1104;-41
2022/10/18 11:17:06;;;;;;;;;;;;;;;26.82;32.85;102064.97;5041484;28;1136;-41
2022/10/18 11:19:33;;;;;;;;;;;;;;;26.85;32.95;102062.84;5058240;28;2647;-38
2022/10/18 11:21:59;;;;;;;;;;;;;;;26.97;32.56;102057.25;5040604;28;1909;-40
2022/10/18 11:24:25;;;;;;;;;;;;;;;27.31;32.15;102053.09;5040894;28;1234;-38
2022/10/18 11:26:51;;;;;;;;;;;;;;;27.67;31.48;102039.59;5065805;28;1093;-38
2022/10/18 11:29:30;;;;;;;;;;;;;;;27.83;31.27;102044.31;5047810;28;1389;-38
2022/10/18 11:31:58;;;;;;;;;;;;;;;27.95;31.68;102034.09;5072221;28;961;-38
2022/10/18 11:34:43;;;;;;;;;;;;;;;28.04;31.25;102026.91;5047629;28;1160;-38
2022/10/18 11:37:14;;;;;;;;;;;;;;;28.00;30.38;102025.50;5041877;28;1199;-36
2022/10/18 11:39:58;;;;;;;;;;;;;;;27.70;30.91;102022.22;5067951;28;1100;-39
2022/10/18 11:42:28;;;;;;;;;;;;;;;27.49;31.31;102009.88;5058462;28;1961;-37
2022/10/18 11:44:59;;;;;;;;;;;;;;;27.58;31.46;102011.63;5067327;28;1119;-39
2022/10/18 11:47:27;;;;;;;;;;;;;;;27.60;31.22;102006.94;5072000;28;1065;-39
2022/10/18 11:50:07;;;;;;;;;;;;;;;27.73;30.71;102005.69;5060325;28;2515;-38
2022/10/18 11:52:36;;;;;;;;;;;;;;;27.83;30.63;102005.59;5059395;28;1123;-38
2022/10/18 11:55:16;;;;;;;;;;;;;;;27.87;30.76;102002.44;5062748;28;1152;-39
2022/10/18 11:58:00;;;;;;;;;;;;;;;27.98;30.44;102011.28;5073677;28;1206;-39
2022/10/18 12:00:38;;;;;;;;;;;;;;;28.13;30.22;101995.31;5071311;28;1959;-40
2022/10/18 12:03:12;;;;;;;;;;;;;;;28.07;30.05;102002.25;5058073;28;1152;-40
2022/10/18 12:05:38;;;;;;;;;;;;;;;28.28;29.77;101997.47;5072367;28;1116;-40
2022/10/18 12:08:08;;;;;;;;;;;;;;;28.24;29.96;102005.03;5057665;28;987;-39
2022/10/18 12:10:33;;;;;;;;;;;;;;;28.29;30.11;102001.84;5040154;28;1247;-39
2022/10/18 12:13:00;;;;;;;;;;;;;;;28.24;29.80;101996.94;5039577;28;1152;-40
2022/10/18 12:15:26;;;;;;;;;;;;;;;28.27;30.00;101993.03;5058258;28;1219;-38
2022/10/18 12:17:55;;;;;;;;;;;;;;;27.84;30.24;101980.28;5039613;28;2547;-38
2022/10/18 12:20:26;;;;;;;;;;;;;;;27.48;31.39;101981.13;5057404;28;1005;-36
2022/10/18 12:22:51;;;;;;;;;;;;;;;27.30;31.86;101979.28;5057419;28;1179;-37
2022/10/18 12:25:17;;;;;;;;;;;;;;;27.19;32.00;101974.13;5056767;28;1215;-38
2022/10/18 12:27:42;;;;;;;;;;;;;;;27.15;31.96;101976.28;5040035;28;1136;-38
2022/10/18 12:30:18;;;;;;;;;;;;;;;27.11;32.04;101969.50;5057587;28;1076;-39
2022/10/18 12:32:43;;;;;;;;;;;;;;;27.15;32.02;101968.19;5039155;28;893;-38
2022/10/18 12:35:13;;;;;;;;;;;;;;;27.13;32.01;101956.66;5058490;28;1171;-38
2022/10/18 12:37:53;;;;;;;;;;;;;;;27.08;32.36;101958.97;5051635;28;1183;-38
2022/10/18 12:40:30;;;;;;;;;;;;;;;27.10;32.01;101951.56;5040822;28;1547;-38
2022/10/18 12:42:56;;;;;;;;;;;;;;;27.08;32.09;101957.13;5057866;28;1210;-38
2022/10/18 12:45:33;;;;;;;;;;;;;;;27.09;31.99;101942.63;5057489;28;1108;-38
2022/10/18 12:47:59;;;;;;;;;;;;;;;27.00;32.13;101935.41;5039461;28;2409;-38
2022/10/18 12:50:34;;;;;;;;;;;;;;;27.02;32.05;101937.00;5057460;28;1206;-38